sensor_id;sensor_type;location;lat;lon;timestamp;temperature;humidity
52044;DHT22;38053;53.100;6.078;2023-10-31T00:00:11;10.10;99.90
52044;DHT22;38053;53.100;6.078;2023-10-31T00:02:38;10.00;99.90
52044;DHT22;38053;53.100;6.078;2023-10-31T00:05:04;10.10;99.90
52044;DHT22;38053;53.100;6.078;2023-10-31T00:07:29;10.10;99.90
52044;DHT22;38053;53.100;6.078;2023-10-31T00:09:55;10.10;99.90
52044;DHT22;38053;53.100;6.078;2023-10-31T00:12:21;10.10;99.90
52044;DHT22;38053;53.100;6.078;2023-10-31T00:14:46;10.10;99.90
52044;DHT22;38053;53.100;6.078;2023-10-31T00:17:12;10.10;99.90
52044;DHT22;38053;53.100;6.078;2023-10-31T00:19:38;10.10;99.90
52044;DHT22;38053;53.100;6.078;2023-10-31T00:22:04;10.10;99.90
52044;DHT22;38053;53.100;6.078;2023-10-31T00:24:30;10.10;99.90
52044;DHT22;38053;53.100;6.078;2023-10-31T00:26:58;10.10;99.90
52044;DHT22;38053;53.100;6.078;2023-10-31T00:29:23;10.00;99.90
52044;DHT22;38053;53.100;6.078;2023-10-31T00:31:49;10.00;99.90
52044;DHT22;38053;53.100;6.078;2023-10-31T00:34:15;10.00;99.90
52044;DHT22;38053;53.100;6.078;2023-10-31T00:36:41;9.90;99.90
52044;DHT22;38053;53.100;6.078;2023-10-31T00:39:07;10.00;99.90
52044;DHT22;38053;53.100;6.078;2023-10-31T00:41:32;10.00;99.90
52044;DHT22;38053;53.100;6.078;2023-10-31T00:43:58;10.00;99.90
52044;DHT22;38053;53.100;6.078;2023-10-31T00:46:24;10.00;99.90
52044;DHT22;38053;53.100;6.078;2023-10-31T00:48:50;10.00;99.90
52044;DHT22;38053;53.100;6.078;2023-10-31T00:51:16;9.90;99.90
52044;DHT22;38053;53.100;6.078;2023-10-31T00:53:41;9.90;99.90
52044;DHT22;38053;53.100;6.078;2023-10-31T00:56:07;9.90;99.90
52044;DHT22;38053;53.100;6.078;2023-10-31T00:58:33;9.80;99.90
52044;DHT22;38053;53.100;6.078;2023-10-31T01:00:59;9.80;99.90
52044;DHT22;38053;53.100;6.078;2023-10-31T01:03:25;9.80;99.90
52044;DHT22;38053;53.100;6.078;2023-10-31T01:05:51;9.80;99.90
52044;DHT22;38053;53.100;6.078;2023-10-31T01:08:16;9.80;99.90
52044;DHT22;38053;53.100;6.078;2023-10-31T01:10:42;9.80;99.90
52044;DHT22;38053;53.100;6.078;2023-10-31T01:13:08;9.80;99.90
52044;DHT22;38053;53.100;6.078;2023-10-31T01:15:33;9.80;99.90
52044;DHT22;38053;53.100;6.078;2023-10-31T01:17:59;9.80;99.90
52044;DHT22;38053;53.100;6.078;2023-10-31T01:20:25;9.80;99.90
52044;DHT22;38053;53.100;6.078;2023-10-31T01:22:51;9.80;99.90
52044;DHT22;38053;53.100;6.078;2023-10-31T01:25:17;9.70;99.90
52044;DHT22;38053;53.100;6.078;2023-10-31T01:27:42;9.70;99.90
52044;DHT22;38053;53.100;6.078;2023-10-31T01:30:09;9.80;99.90
52044;DHT22;38053;53.100;6.078;2023-10-31T01:32:35;9.80;99.90
52044;DHT22;38053;53.100;6.078;2023-10-31T01:35:00;9.80;99.90
52044;DHT22;38053;53.100;6.078;2023-10-31T01:37:26;9.80;99.90
52044;DHT22;38053;53.100;6.078;2023-10-31T01:39:52;9.80;99.90
52044;DHT22;38053;53.100;6.078;2023-10-31T01:42:18;9.80;99.90
52044;DHT22;38053;53.100;6.078;2023-10-31T01:44:44;9.80;99.90
52044;DHT22;38053;53.100;6.078;2023-10-31T01:47:10;9.80;99.90
52044;DHT22;38053;53.100;6.078;2023-10-31T01:49:40;9.90;99.90
52044;DHT22;38053;53.100;6.078;2023-10-31T01:52:06;9.90;99.90
52044;DHT22;38053;53.100;6.078;2023-10-31T01:54:33;9.90;99.90
52044;DHT22;38053;53.100;6.078;2023-10-31T01:57:00;9.90;99.90
52044;DHT22;38053;53.100;6.078;2023-10-31T01:59:27;9.90;99.90
52044;DHT22;38053;53.100;6.078;2023-10-31T02:01:53;9.90;99.90
52044;DHT22;38053;53.100;6.078;2023-10-31T02:04:19;9.90;99.90
52044;DHT22;38053;53.100;6.078;2023-10-31T02:06:45;9.90;99.90
52044;DHT22;38053;53.100;6.078;2023-10-31T02:09:11;9.90;99.90
52044;DHT22;38053;53.100;6.078;2023-10-31T02:11:37;9.90;99.90
52044;DHT22;38053;53.100;6.078;2023-10-31T02:14:03;9.90;99.90
52044;DHT22;38053;53.100;6.078;2023-10-31T02:16:29;9.90;99.90
52044;DHT22;38053;53.100;6.078;2023-10-31T02:18:55;9.90;99.90
52044;DHT22;38053;53.100;6.078;2023-10-31T02:21:20;9.90;99.90
52044;DHT22;38053;53.100;6.078;2023-10-31T02:24:06;9.80;99.90
52044;DHT22;38053;53.100;6.078;2023-10-31T02:26:34;9.80;99.90
52044;DHT22;38053;53.100;6.078;2023-10-31T02:29:01;9.80;99.90
52044;DHT22;38053;53.100;6.078;2023-10-31T02:31:27;9.80;99.90
52044;DHT22;38053;53.100;6.078;2023-10-31T02:33:53;9.80;99.90
52044;DHT22;38053;53.100;6.078;2023-10-31T02:36:18;9.80;99.90
52044;DHT22;38053;53.100;6.078;2023-10-31T02:38:45;9.80;99.90
52044;DHT22;38053;53.100;6.078;2023-10-31T02:41:11;9.80;99.90
52044;DHT22;38053;53.100;6.078;2023-10-31T02:43:38;9.80;99.90
52044;DHT22;38053;53.100;6.078;2023-10-31T02:46:04;9.80;99.90
52044;DHT22;38053;53.100;6.078;2023-10-31T02:48:30;9.80;99.90
52044;DHT22;38053;53.100;6.078;2023-10-31T02:51:04;9.80;99.90
52044;DHT22;38053;53.100;6.078;2023-10-31T02:53:30;9.80;99.90
52044;DHT22;38053;53.100;6.078;2023-10-31T02:55:56;9.80;99.90
52044;DHT22;38053;53.100;6.078;2023-10-31T02:58:21;9.80;99.90
52044;DHT22;38053;53.100;6.078;2023-10-31T03:00:47;9.80;99.90
52044;DHT22;38053;53.100;6.078;2023-10-31T03:03:13;9.80;99.90
52044;DHT22;38053;53.100;6.078;2023-10-31T03:05:39;9.80;99.90
52044;DHT22;38053;53.100;6.078;2023-10-31T03:08:05;9.80;99.90
52044;DHT22;38053;53.100;6.078;2023-10-31T03:10:32;9.80;99.90
52044;DHT22;38053;53.100;6.078;2023-10-31T03:12:58;9.80;99.90
52044;DHT22;38053;53.100;6.078;2023-10-31T03:15:24;9.90;99.90
52044;DHT22;38053;53.100;6.078;2023-10-31T03:17:50;9.90;99.90
52044;DHT22;38053;53.100;6.078;2023-10-31T03:20:16;9.90;99.90
52044;DHT22;38053;53.100;6.078;2023-10-31T03:22:41;9.90;99.90
52044;DHT22;38053;53.100;6.078;2023-10-31T03:25:07;9.90;99.90
52044;DHT22;38053;53.100;6.078;2023-10-31T03:27:33;9.90;99.90
52044;DHT22;38053;53.100;6.078;2023-10-31T03:29:59;9.90;99.90
52044;DHT22;38053;53.100;6.078;2023-10-31T03:32:24;10.00;99.90
52044;DHT22;38053;53.100;6.078;2023-10-31T03:34:50;9.90;99.90
52044;DHT22;38053;53.100;6.078;2023-10-31T03:37:16;10.00;99.90
52044;DHT22;38053;53.100;6.078;2023-10-31T03:39:41;10.00;99.90
52044;DHT22;38053;53.100;6.078;2023-10-31T03:42:08;10.00;99.90
52044;DHT22;38053;53.100;6.078;2023-10-31T03:44:33;10.00;99.90
52044;DHT22;38053;53.100;6.078;2023-10-31T03:46:59;10.00;99.90
52044;DHT22;38053;53.100;6.078;2023-10-31T03:49:25;10.00;99.90
52044;DHT22;38053;53.100;6.078;2023-10-31T03:51:51;10.10;99.90
52044;DHT22;38053;53.100;6.078;2023-10-31T03:54:17;10.00;99.90
52044;DHT22;38053;53.100;6.078;2023-10-31T03:56:43;10.00;99.90
52044;DHT22;38053;53.100;6.078;2023-10-31T03:59:09;10.00;99.90
52044;DHT22;38053;53.100;6.078;2023-10-31T04:01:35;10.00;99.90
52044;DHT22;38053;53.100;6.078;2023-10-31T04:04:01;10.00;99.90
52044;DHT22;38053;53.100;6.078;2023-10-31T04:06:28;10.00;99.90
52044;DHT22;38053;53.100;6.078;2023-10-31T04:08:53;10.00;99.90
52044;DHT22;38053;53.100;6.078;2023-10-31T04:11:19;9.90;99.90
52044;DHT22;38053;53.100;6.078;2023-10-31T04:13:45;9.90;99.90
52044;DHT22;38053;53.100;6.078;2023-10-31T04:16:11;9.90;99.90
52044;DHT22;38053;53.100;6.078;2023-10-31T04:18:37;9.90;99.90
52044;DHT22;38053;53.100;6.078;2023-10-31T04:21:03;9.90;99.90
52044;DHT22;38053;53.100;6.078;2023-10-31T04:23:29;9.80;99.90
52044;DHT22;38053;53.100;6.078;2023-10-31T04:25:54;9.80;99.90
52044;DHT22;38053;53.100;6.078;2023-10-31T04:28:20;9.80;99.90
52044;DHT22;38053;53.100;6.078;2023-10-31T04:30:46;9.80;99.90
52044;DHT22;38053;53.100;6.078;2023-10-31T04:33:12;9.80;99.90
52044;DHT22;38053;53.100;6.078;2023-10-31T04:35:37;9.70;99.90
52044;DHT22;38053;53.100;6.078;2023-10-31T04:38:03;9.70;99.90
52044;DHT22;38053;53.100;6.078;2023-10-31T04:40:29;9.70;99.90
52044;DHT22;38053;53.100;6.078;2023-10-31T04:42:54;9.70;99.90
52044;DHT22;38053;53.100;6.078;2023-10-31T04:45:20;9.70;99.90
52044;DHT22;38053;53.100;6.078;2023-10-31T04:47:47;9.70;99.90
52044;DHT22;38053;53.100;6.078;2023-10-31T04:50:13;9.70;99.90
52044;DHT22;38053;53.100;6.078;2023-10-31T04:52:38;9.70;99.90
52044;DHT22;38053;53.100;6.078;2023-10-31T04:55:05;9.70;99.90
52044;DHT22;38053;53.100;6.078;2023-10-31T04:57:31;9.70;99.90
52044;DHT22;38053;53.100;6.078;2023-10-31T04:59:56;9.70;99.90
52044;DHT22;38053;53.100;6.078;2023-10-31T05:02:23;9.70;99.90
52044;DHT22;38053;53.100;6.078;2023-10-31T05:04:49;9.60;99.90
52044;DHT22;38053;53.100;6.078;2023-10-31T05:07:18;9.70;99.90
52044;DHT22;38053;53.100;6.078;2023-10-31T05:09:44;9.70;99.90
52044;DHT22;38053;53.100;6.078;2023-10-31T05:12:09;9.70;99.90
52044;DHT22;38053;53.100;6.078;2023-10-31T05:14:35;9.70;99.90
52044;DHT22;38053;53.100;6.078;2023-10-31T05:17:01;9.60;99.90
52044;DHT22;38053;53.100;6.078;2023-10-31T05:19:27;9.70;99.90
52044;DHT22;38053;53.100;6.078;2023-10-31T05:21:52;9.70;99.90
52044;DHT22;38053;53.100;6.078;2023-10-31T05:24:18;9.70;99.90
52044;DHT22;38053;53.100;6.078;2023-10-31T05:26:44;9.80;99.90
52044;DHT22;38053;53.100;6.078;2023-10-31T05:29:13;9.80;99.90
52044;DHT22;38053;53.100;6.078;2023-10-31T05:31:39;9.80;99.90
52044;DHT22;38053;53.100;6.078;2023-10-31T05:34:07;9.80;99.90
52044;DHT22;38053;53.100;6.078;2023-10-31T05:36:33;9.80;99.90
52044;DHT22;38053;53.100;6.078;2023-10-31T05:38:58;9.80;99.90
52044;DHT22;38053;53.100;6.078;2023-10-31T05:41:24;9.80;99.90
52044;DHT22;38053;53.100;6.078;2023-10-31T05:43:50;9.80;99.90
52044;DHT22;38053;53.100;6.078;2023-10-31T05:46:15;9.80;99.90
52044;DHT22;38053;53.100;6.078;2023-10-31T05:48:44;9.80;99.90
52044;DHT22;38053;53.100;6.078;2023-10-31T05:51:13;9.80;99.90
52044;DHT22;38053;53.100;6.078;2023-10-31T05:53:41;9.90;99.90
52044;DHT22;38053;53.100;6.078;2023-10-31T05:56:07;9.90;99.90
52044;DHT22;38053;53.100;6.078;2023-10-31T05:58:33;9.80;99.90
52044;DHT22;38053;53.100;6.078;2023-10-31T06:00:59;9.90;99.90
52044;DHT22;38053;53.100;6.078;2023-10-31T06:03:25;9.90;99.90
52044;DHT22;38053;53.100;6.078;2023-10-31T06:05:51;9.80;99.90
52044;DHT22;38053;53.100;6.078;2023-10-31T06:08:16;9.90;99.90
52044;DHT22;38053;53.100;6.078;2023-10-31T06:10:42;9.90;99.90
52044;DHT22;38053;53.100;6.078;2023-10-31T06:13:08;9.90;99.90
52044;DHT22;38053;53.100;6.078;2023-10-31T06:15:33;9.90;99.90
52044;DHT22;38053;53.100;6.078;2023-10-31T06:17:59;9.90;99.90
52044;DHT22;38053;53.100;6.078;2023-10-31T06:20:26;9.90;99.90
52044;DHT22;38053;53.100;6.078;2023-10-31T06:22:52;9.90;99.90
52044;DHT22;38053;53.100;6.078;2023-10-31T06:25:17;9.90;99.90
52044;DHT22;38053;53.100;6.078;2023-10-31T06:27:43;9.90;99.90
52044;DHT22;38053;53.100;6.078;2023-10-31T06:30:09;9.90;99.90
52044;DHT22;38053;53.100;6.078;2023-10-31T06:32:35;9.90;99.90
52044;DHT22;38053;53.100;6.078;2023-10-31T06:35:02;9.90;99.90
52044;DHT22;38053;53.100;6.078;2023-10-31T06:37:28;9.90;99.90
52044;DHT22;38053;53.100;6.078;2023-10-31T06:39:53;9.90;99.90
52044;DHT22;38053;53.100;6.078;2023-10-31T06:42:20;9.90;99.90
52044;DHT22;38053;53.100;6.078;2023-10-31T06:44:46;9.90;99.90
52044;DHT22;38053;53.100;6.078;2023-10-31T06:47:11;9.90;99.90
52044;DHT22;38053;53.100;6.078;2023-10-31T06:49:37;9.90;99.90
52044;DHT22;38053;53.100;6.078;2023-10-31T06:52:04;9.80;99.90
52044;DHT22;38053;53.100;6.078;2023-10-31T06:54:29;9.80;99.90
52044;DHT22;38053;53.100;6.078;2023-10-31T06:56:57;9.90;99.90
52044;DHT22;38053;53.100;6.078;2023-10-31T06:59:23;9.80;99.90
52044;DHT22;38053;53.100;6.078;2023-10-31T07:01:48;9.80;99.90
52044;DHT22;38053;53.100;6.078;2023-10-31T07:04:14;9.80;99.90
52044;DHT22;38053;53.100;6.078;2023-10-31T07:06:42;9.80;99.90
52044;DHT22;38053;53.100;6.078;2023-10-31T07:09:17;9.90;99.90
52044;DHT22;38053;53.100;6.078;2023-10-31T07:11:43;9.80;99.90
52044;DHT22;38053;53.100;6.078;2023-10-31T07:14:09;9.80;99.90
52044;DHT22;38053;53.100;6.078;2023-10-31T07:16:34;9.80;99.90
52044;DHT22;38053;53.100;6.078;2023-10-31T07:19:00;9.90;99.90
52044;DHT22;38053;53.100;6.078;2023-10-31T07:21:26;9.90;99.90
52044;DHT22;38053;53.100;6.078;2023-10-31T07:23:51;9.90;99.90
52044;DHT22;38053;53.100;6.078;2023-10-31T07:26:17;9.90;99.90
52044;DHT22;38053;53.100;6.078;2023-10-31T07:28:43;10.00;99.90
52044;DHT22;38053;53.100;6.078;2023-10-31T07:31:09;10.00;99.90
52044;DHT22;38053;53.100;6.078;2023-10-31T07:33:34;10.00;99.90
52044;DHT22;38053;53.100;6.078;2023-10-31T07:36:00;10.00;99.90
52044;DHT22;38053;53.100;6.078;2023-10-31T07:38:26;10.00;99.90
52044;DHT22;38053;53.100;6.078;2023-10-31T07:40:52;10.10;99.90
52044;DHT22;38053;53.100;6.078;2023-10-31T07:43:17;10.10;99.90
52044;DHT22;38053;53.100;6.078;2023-10-31T07:45:43;10.10;99.90
52044;DHT22;38053;53.100;6.078;2023-10-31T07:48:09;10.10;99.90
52044;DHT22;38053;53.100;6.078;2023-10-31T07:50:35;10.10;99.90
52044;DHT22;38053;53.100;6.078;2023-10-31T07:53:00;10.10;99.90
52044;DHT22;38053;53.100;6.078;2023-10-31T07:55:26;10.10;99.90
52044;DHT22;38053;53.100;6.078;2023-10-31T07:57:52;10.10;99.90
52044;DHT22;38053;53.100;6.078;2023-10-31T08:00:18;10.10;99.90
52044;DHT22;38053;53.100;6.078;2023-10-31T08:02:44;10.20;99.90
52044;DHT22;38053;53.100;6.078;2023-10-31T08:05:10;10.10;99.90
52044;DHT22;38053;53.100;6.078;2023-10-31T08:07:36;10.20;99.90
52044;DHT22;38053;53.100;6.078;2023-10-31T08:10:02;10.20;99.90
52044;DHT22;38053;53.100;6.078;2023-10-31T08:12:29;10.30;99.90
52044;DHT22;38053;53.100;6.078;2023-10-31T08:14:55;10.30;99.90
52044;DHT22;38053;53.100;6.078;2023-10-31T08:17:21;10.30;99.90
52044;DHT22;38053;53.100;6.078;2023-10-31T08:19:47;10.30;99.90
52044;DHT22;38053;53.100;6.078;2023-10-31T08:22:13;10.30;99.90
52044;DHT22;38053;53.100;6.078;2023-10-31T08:24:39;10.40;99.90
52044;DHT22;38053;53.100;6.078;2023-10-31T08:27:05;10.30;99.90
52044;DHT22;38053;53.100;6.078;2023-10-31T08:29:31;10.30;99.90
52044;DHT22;38053;53.100;6.078;2023-10-31T08:31:57;10.30;99.90
52044;DHT22;38053;53.100;6.078;2023-10-31T08:34:23;10.40;99.90
52044;DHT22;38053;53.100;6.078;2023-10-31T08:36:49;10.40;99.90
52044;DHT22;38053;53.100;6.078;2023-10-31T08:39:15;10.40;99.90
52044;DHT22;38053;53.100;6.078;2023-10-31T08:41:57;10.40;99.90
52044;DHT22;38053;53.100;6.078;2023-10-31T08:44:23;10.40;99.90
52044;DHT22;38053;53.100;6.078;2023-10-31T08:46:49;10.40;99.90
52044;DHT22;38053;53.100;6.078;2023-10-31T08:49:15;10.40;99.90
52044;DHT22;38053;53.100;6.078;2023-10-31T08:51:42;10.40;99.90
52044;DHT22;38053;53.100;6.078;2023-10-31T08:54:08;10.40;99.90
52044;DHT22;38053;53.100;6.078;2023-10-31T08:56:34;10.50;99.90
52044;DHT22;38053;53.100;6.078;2023-10-31T08:59:00;10.50;99.90
52044;DHT22;38053;53.100;6.078;2023-10-31T09:01:27;10.50;99.90
52044;DHT22;38053;53.100;6.078;2023-10-31T09:03:54;10.60;99.90
52044;DHT22;38053;53.100;6.078;2023-10-31T09:06:20;10.60;99.90
52044;DHT22;38053;53.100;6.078;2023-10-31T09:08:46;10.60;99.90
52044;DHT22;38053;53.100;6.078;2023-10-31T09:11:12;10.70;99.90
52044;DHT22;38053;53.100;6.078;2023-10-31T09:13:38;10.70;99.90
52044;DHT22;38053;53.100;6.078;2023-10-31T09:16:04;10.70;99.90
52044;DHT22;38053;53.100;6.078;2023-10-31T09:18:29;10.70;99.90
52044;DHT22;38053;53.100;6.078;2023-10-31T09:20:55;10.70;99.90
52044;DHT22;38053;53.100;6.078;2023-10-31T09:23:21;10.70;99.90
52044;DHT22;38053;53.100;6.078;2023-10-31T09:25:47;10.60;99.90
52044;DHT22;38053;53.100;6.078;2023-10-31T09:28:12;10.60;99.90
52044;DHT22;38053;53.100;6.078;2023-10-31T09:30:38;10.70;99.90
52044;DHT22;38053;53.100;6.078;2023-10-31T09:33:04;10.70;99.90
52044;DHT22;38053;53.100;6.078;2023-10-31T09:35:30;10.70;99.90
52044;DHT22;38053;53.100;6.078;2023-10-31T09:37:55;10.70;99.90
52044;DHT22;38053;53.100;6.078;2023-10-31T09:40:22;10.70;99.90
52044;DHT22;38053;53.100;6.078;2023-10-31T09:42:48;10.70;99.90
52044;DHT22;38053;53.100;6.078;2023-10-31T09:45:17;10.70;99.90
52044;DHT22;38053;53.100;6.078;2023-10-31T09:47:43;10.70;99.90
52044;DHT22;38053;53.100;6.078;2023-10-31T09:50:09;10.70;99.90
52044;DHT22;38053;53.100;6.078;2023-10-31T09:52:35;10.70;99.90
52044;DHT22;38053;53.100;6.078;2023-10-31T09:55:02;10.80;99.90
52044;DHT22;38053;53.100;6.078;2023-10-31T09:57:32;10.80;99.90
52044;DHT22;38053;53.100;6.078;2023-10-31T09:59:58;10.90;99.90
52044;DHT22;38053;53.100;6.078;2023-10-31T10:02:24;10.90;99.90
52044;DHT22;38053;53.100;6.078;2023-10-31T10:04:50;10.90;99.90
52044;DHT22;38053;53.100;6.078;2023-10-31T10:07:17;10.90;99.90
52044;DHT22;38053;53.100;6.078;2023-10-31T10:09:47;10.80;99.90
52044;DHT22;38053;53.100;6.078;2023-10-31T10:12:15;10.90;99.90
52044;DHT22;38053;53.100;6.078;2023-10-31T10:14:41;10.80;99.90
52044;DHT22;38053;53.100;6.078;2023-10-31T10:17:17;10.80;99.90
52044;DHT22;38053;53.100;6.078;2023-10-31T10:19:43;10.80;99.90
52044;DHT22;38053;53.100;6.078;2023-10-31T10:22:09;10.80;99.90
52044;DHT22;38053;53.100;6.078;2023-10-31T10:24:35;10.80;99.90
52044;DHT22;38053;53.100;6.078;2023-10-31T10:27:04;10.80;99.90
52044;DHT22;38053;53.100;6.078;2023-10-31T10:29:30;10.70;99.90
52044;DHT22;38053;53.100;6.078;2023-10-31T10:31:55;10.70;99.90
52044;DHT22;38053;53.100;6.078;2023-10-31T10:34:22;10.70;99.90
52044;DHT22;38053;53.100;6.078;2023-10-31T10:36:49;10.70;99.90
52044;DHT22;38053;53.100;6.078;2023-10-31T10:39:19;10.70;99.90
52044;DHT22;38053;53.100;6.078;2023-10-31T10:41:49;10.70;99.90
52044;DHT22;38053;53.100;6.078;2023-10-31T10:44:19;10.70;99.90
52044;DHT22;38053;53.100;6.078;2023-10-31T10:46:54;10.80;99.90
52044;DHT22;38053;53.100;6.078;2023-10-31T10:49:24;10.80;99.90
52044;DHT22;38053;53.100;6.078;2023-10-31T10:59:48;11.00;99.90
52044;DHT22;38053;53.100;6.078;2023-10-31T11:02:18;10.90;99.90
52044;DHT22;38053;53.100;6.078;2023-10-31T11:04:44;10.90;99.90
52044;DHT22;38053;53.100;6.078;2023-10-31T11:07:10;10.90;99.90
52044;DHT22;38053;53.100;6.078;2023-10-31T11:09:37;10.80;99.90
52044;DHT22;38053;53.100;6.078;2023-10-31T11:12:04;10.80;99.90
52044;DHT22;38053;53.100;6.078;2023-10-31T11:14:30;10.80;99.90
52044;DHT22;38053;53.100;6.078;2023-10-31T11:17:01;10.80;99.90
52044;DHT22;38053;53.100;6.078;2023-10-31T11:19:30;10.80;99.90
52044;DHT22;38053;53.100;6.078;2023-10-31T11:21:59;10.90;99.90
52044;DHT22;38053;53.100;6.078;2023-10-31T11:24:30;11.00;99.90
52044;DHT22;38053;53.100;6.078;2023-10-31T11:27:05;11.10;99.90
52044;DHT22;38053;53.100;6.078;2023-10-31T11:29:31;11.10;99.90
52044;DHT22;38053;53.100;6.078;2023-10-31T11:31:57;11.10;99.90
52044;DHT22;38053;53.100;6.078;2023-10-31T11:34:26;11.10;99.90
52044;DHT22;38053;53.100;6.078;2023-10-31T11:36:52;11.00;99.90
52044;DHT22;38053;53.100;6.078;2023-10-31T11:39:21;10.90;99.90
52044;DHT22;38053;53.100;6.078;2023-10-31T11:41:56;10.70;99.90
52044;DHT22;38053;53.100;6.078;2023-10-31T11:44:28;10.60;99.90
52044;DHT22;38053;53.100;6.078;2023-10-31T11:46:54;10.60;99.90
52044;DHT22;38053;53.100;6.078;2023-10-31T11:49:48;10.50;99.90
52044;DHT22;38053;53.100;6.078;2023-10-31T11:52:17;10.50;99.90
52044;DHT22;38053;53.100;6.078;2023-10-31T11:54:44;10.50;99.90
52044;DHT22;38053;53.100;6.078;2023-10-31T11:57:10;10.50;99.90
52044;DHT22;38053;53.100;6.078;2023-10-31T11:59:39;10.50;99.90
52044;DHT22;38053;53.100;6.078;2023-10-31T12:02:15;10.50;99.90
52044;DHT22;38053;53.100;6.078;2023-10-31T12:04:41;10.50;99.90
52044;DHT22;38053;53.100;6.078;2023-10-31T12:07:08;10.50;99.90
52044;DHT22;38053;53.100;6.078;2023-10-31T12:09:46;10.60;99.90
52044;DHT22;38053;53.100;6.078;2023-10-31T12:12:12;10.60;99.90
52044;DHT22;38053;53.100;6.078;2023-10-31T12:14:38;10.60;99.90
52044;DHT22;38053;53.100;6.078;2023-10-31T12:17:04;10.60;99.90
52044;DHT22;38053;53.100;6.078;2023-10-31T12:19:33;10.60;99.90
52044;DHT22;38053;53.100;6.078;2023-10-31T12:21:58;10.70;99.90
52044;DHT22;38053;53.100;6.078;2023-10-31T12:24:24;10.70;99.90
52044;DHT22;38053;53.100;6.078;2023-10-31T12:26:50;10.70;99.90
52044;DHT22;38053;53.100;6.078;2023-10-31T12:29:21;10.80;99.90
52044;DHT22;38053;53.100;6.078;2023-10-31T12:31:51;11.00;99.90
52044;DHT22;38053;53.100;6.078;2023-10-31T12:34:23;11.10;99.90
52044;DHT22;38053;53.100;6.078;2023-10-31T12:36:53;11.30;99.90
52044;DHT22;38053;53.100;6.078;2023-10-31T12:39:24;11.30;99.90
52044;DHT22;38053;53.100;6.078;2023-10-31T12:41:54;11.40;99.90
52044;DHT22;38053;53.100;6.078;2023-10-31T12:44:25;11.50;99.90
52044;DHT22;38053;53.100;6.078;2023-10-31T12:46:52;11.70;99.90
52044;DHT22;38053;53.100;6.078;2023-10-31T12:49:19;11.80;99.90
52044;DHT22;38053;53.100;6.078;2023-10-31T12:52:02;11.80;99.90
52044;DHT22;38053;53.100;6.078;2023-10-31T12:54:34;11.70;99.90
52044;DHT22;38053;53.100;6.078;2023-10-31T12:57:04;11.80;99.90
52044;DHT22;38053;53.100;6.078;2023-10-31T12:59:31;11.80;99.90
52044;DHT22;38053;53.100;6.078;2023-10-31T13:01:57;11.90;99.90
52044;DHT22;38053;53.100;6.078;2023-10-31T13:04:32;12.00;99.90
52044;DHT22;38053;53.100;6.078;2023-10-31T13:07:03;12.00;99.90
52044;DHT22;38053;53.100;6.078;2023-10-31T13:09:39;12.20;99.90
52044;DHT22;38053;53.100;6.078;2023-10-31T13:12:07;12.20;99.90
52044;DHT22;38053;53.100;6.078;2023-10-31T13:14:34;12.20;99.90
52044;DHT22;38053;53.100;6.078;2023-10-31T13:17:00;12.10;99.90
52044;DHT22;38053;53.100;6.078;2023-10-31T13:19:27;12.20;99.90
52044;DHT22;38053;53.100;6.078;2023-10-31T13:21:53;12.20;99.90
52044;DHT22;38053;53.100;6.078;2023-10-31T13:24:19;12.10;99.90
52044;DHT22;38053;53.100;6.078;2023-10-31T13:26:45;12.00;99.90
52044;DHT22;38053;53.100;6.078;2023-10-31T13:29:16;11.80;99.90
52044;DHT22;38053;53.100;6.078;2023-10-31T13:31:42;11.70;99.90
52044;DHT22;38053;53.100;6.078;2023-10-31T13:34:08;11.50;99.90
52044;DHT22;38053;53.100;6.078;2023-10-31T13:36:33;11.50;99.90
52044;DHT22;38053;53.100;6.078;2023-10-31T13:39:02;11.50;99.90
52044;DHT22;38053;53.100;6.078;2023-10-31T13:41:28;11.60;99.90
52044;DHT22;38053;53.100;6.078;2023-10-31T13:43:54;11.60;99.90
52044;DHT22;38053;53.100;6.078;2023-10-31T13:46:19;11.60;99.90
52044;DHT22;38053;53.100;6.078;2023-10-31T13:48:45;11.50;99.90
52044;DHT22;38053;53.100;6.078;2023-10-31T13:51:12;11.40;99.90
52044;DHT22;38053;53.100;6.078;2023-10-31T13:53:38;11.30;99.90
52044;DHT22;38053;53.100;6.078;2023-10-31T13:56:04;11.30;99.90
52044;DHT22;38053;53.100;6.078;2023-10-31T13:58:29;11.30;99.90
52044;DHT22;38053;53.100;6.078;2023-10-31T14:00:55;11.20;99.90
52044;DHT22;38053;53.100;6.078;2023-10-31T14:03:21;11.20;99.90
52044;DHT22;38053;53.100;6.078;2023-10-31T14:05:47;11.20;99.90
52044;DHT22;38053;53.100;6.078;2023-10-31T14:08:13;11.20;99.90
52044;DHT22;38053;53.100;6.078;2023-10-31T14:10:39;11.20;99.90
52044;DHT22;38053;53.100;6.078;2023-10-31T14:13:05;11.10;99.90
52044;DHT22;38053;53.100;6.078;2023-10-31T14:15:34;11.10;99.90
52044;DHT22;38053;53.100;6.078;2023-10-31T14:18:00;11.10;99.90
52044;DHT22;38053;53.100;6.078;2023-10-31T14:20:25;11.10;99.90
52044;DHT22;38053;53.100;6.078;2023-10-31T14:22:51;11.10;99.90
52044;DHT22;38053;53.100;6.078;2023-10-31T14:25:17;11.00;99.90
52044;DHT22;38053;53.100;6.078;2023-10-31T14:27:43;11.10;99.90
52044;DHT22;38053;53.100;6.078;2023-10-31T14:30:11;11.10;99.90
52044;DHT22;38053;53.100;6.078;2023-10-31T14:32:37;11.10;99.90
52044;DHT22;38053;53.100;6.078;2023-10-31T14:35:03;11.10;99.90
52044;DHT22;38053;53.100;6.078;2023-10-31T14:37:32;11.00;99.90
52044;DHT22;38053;53.100;6.078;2023-10-31T14:39:57;11.00;99.90
52044;DHT22;38053;53.100;6.078;2023-10-31T14:42:23;11.00;99.90
52044;DHT22;38053;53.100;6.078;2023-10-31T14:44:49;10.90;99.90
52044;DHT22;38053;53.100;6.078;2023-10-31T14:47:14;10.90;99.90
52044;DHT22;38053;53.100;6.078;2023-10-31T14:49:40;10.90;99.90
52044;DHT22;38053;53.100;6.078;2023-10-31T14:52:06;10.80;99.90
52044;DHT22;38053;53.100;6.078;2023-10-31T14:54:34;10.70;99.90
52044;DHT22;38053;53.100;6.078;2023-10-31T14:57:01;10.70;99.90
52044;DHT22;38053;53.100;6.078;2023-10-31T14:59:27;10.70;99.90
52044;DHT22;38053;53.100;6.078;2023-10-31T15:01:53;10.60;99.90
52044;DHT22;38053;53.100;6.078;2023-10-31T15:04:19;10.60;99.90
52044;DHT22;38053;53.100;6.078;2023-10-31T15:06:45;10.60;99.90
52044;DHT22;38053;53.100;6.078;2023-10-31T15:09:10;10.50;99.90
52044;DHT22;38053;53.100;6.078;2023-10-31T15:11:37;10.50;99.90
52044;DHT22;38053;53.100;6.078;2023-10-31T15:14:03;10.50;99.90
52044;DHT22;38053;53.100;6.078;2023-10-31T15:16:29;10.50;99.90
52044;DHT22;38053;53.100;6.078;2023-10-31T15:18:54;10.50;99.90
52044;DHT22;38053;53.100;6.078;2023-10-31T15:21:20;10.40;99.90
52044;DHT22;38053;53.100;6.078;2023-10-31T15:23:46;10.40;99.90
52044;DHT22;38053;53.100;6.078;2023-10-31T15:26:12;10.30;99.90
52044;DHT22;38053;53.100;6.078;2023-10-31T15:28:39;10.30;99.90
52044;DHT22;38053;53.100;6.078;2023-10-31T15:31:05;10.30;99.90
52044;DHT22;38053;53.100;6.078;2023-10-31T15:33:31;10.20;99.90
52044;DHT22;38053;53.100;6.078;2023-10-31T15:35:57;10.20;99.90
52044;DHT22;38053;53.100;6.078;2023-10-31T15:38:23;10.20;99.90
52044;DHT22;38053;53.100;6.078;2023-10-31T15:40:49;10.10;99.90